Aérodrome :
LOGIN :

S'inscrire | Disclaimer

   EN    FR    IT 

 










Légende :    VFR   VFR Marginal   IFR   IFR Intensif   IFR Très Intensif
Visi : 
Plafond : 
>= 8 km
>= 3000ft
5 à 8 km
1000 à 3000 ft
1500m à 5 km
500 à 1000 ft
800 à 1500m
200 à 500 ft
< 800m
< 200 ft
Symboles :   Orages  Brouillard  Fortes neiges  Fortes précipitations  Vent > 20 kt
SIGMETs :   Divers  Orages  Givrage  Turbulence  Onde Orograph.  Cendres Volcan.







- Altitude de l'aérodrome : 1708 ft
- Code IATA : SJJ


LQSA - Sarajevo

DERNIER METAR :
  • 190800Z VRB02KT CAVOK 09/07 Q1030 NOSIG

METARs EXPIRÉS :
  • 190730Z VRB01KT CAVOK 07/07 Q1030 NOSIG
  • 190700Z VRB01KT CAVOK 07/07 Q1030 NOSIG
  • 190630Z VRB01KT 9999 SCT067 05/05 Q1030 NOSIG
  • 190600Z VRB01KT 9999 FEW064 04/04 Q1030 NOSIG
  • 190530Z VRB02KT 9999 SCT060 03/03 Q1030 NOSIG

TAF TAF LQSA
Valide du 19 à 06h jusqu'au 20 à 06h UTC


190500Z 1906/2006 VRB02KT 9999 SCT050 TX18/1913Z TN03/2005Z
Pas de NOTAMs connus pour ce terrain.



MET'MAP, la Météo Aéronautique d'un coup d'oeil ! - Copyright ORBIFLY Décembre 2007 - Disclaimer

ORBIFLY MET'MAP TEAM :

Programmation & Développement : Alexandra Zaïnal
Conception & Développement : Baudouin d'Aumeries
Co-Programmation & Développement : Marc-Olivier Méhu
Soutien technique & logistique : Manuel Goepfert

Contact : metmap@orbifly.com




SOURCES & CREDITS :

   NOAA